Atlanta, MI

9:37 AM EST on February 09, 2016 (GMT -0500)
Moon Lk | | Change Station
CLOSE
Current Station
Personal Weather Station
Location: Lewiston, MI
Elevation: 1240 ft
Nearby Weather Stations

Elev 1240 ft 44.84 °N, 84.26 °W | Updated 2 seconds ago

Snow
Snow
24.8 °F
Feels Like 25 °F
N
0.7
Wind Variable Wind from West
Gusts 1.1 mph

Today
High -- | Low -- °F
--% Chance of Precip.
Yesterday
High -- | Low -- °F
Precip. -- in
Pressure 29.58 in
Visibility 4.0 miles
Clouds Overcast 900 ft
Windchill 25 °F
Dew Point 21 °F
Humidity 86%
Rainfall 0.00 in
Snow Depth Not available.
7:46 AM 5:55 PM
New Moon, 1% visible
SPECI KGLR 091418Z AUTO 31010G15KT 4SM -SN BR OVC009 M05/M07 A2958 RMK AO2 SNB14 P0000 T10501072
Pressure 29.58 in
Visibility 4.0 miles
Clouds Overcast 900 ft
Windchill 25 °F
Dew Point 21 °F
Humidity 86%
Rainfall 0.00 in
Snow Depth Not available.
7:46 AM 5:55 PM
New Moon, 1% visible
SPECI KGLR 091418Z AUTO 31010G15KT 4SM -SN BR OVC009 M05/M07 A2958 RMK AO2 SNB14 P0000 T10501072

10-Day Weather Forecast

Almanac

Astronomy

Feb. 09, 2016 Rise Set
Actual Time
Civil Twilight
Nautical Twilight
Astronomical Twilight
Moon
Length of Visible Light
Length of Day
Tomorrow will be .
, % of the Moon is Illuminated

Today's Extremes

State Highs State Lows

Community

WunderPhotos

Upload Photos

1,891,606 photos uploaded!

WunderBlog® & News

Nearby

Air Quality

  Air Quality AQ Index Pollutant
Not available.

Snow Depth

Station Depth Elevation

Earthquake Activity

City Distance Mag. Time & Date
Minimum magnitude displayed is 2.5.

Coastal Water Temperatures

Place Temperature

Stations

Nearby Weather Stations

Station Location Temp. Windchill Dew Point Humidity Wind Precip. Elev Updated Type
                   

Watches & Warnings

There are currently no watches in effect.